sensor_id;sensor_type;location;lat;lon;timestamp;P1;durP1;ratioP1;P2;durP2;ratioP2
5491;SDS011;2768;53.540;10.224;2023-04-25T00:05:27;8.37;;;4.90;;
5491;SDS011;2768;53.540;10.224;2023-04-25T00:11:23;6.40;;;4.30;;
5491;SDS011;2768;53.540;10.224;2023-04-25T00:17:16;5.77;;;5.10;;
5491;SDS011;2768;53.540;10.224;2023-04-25T00:23:10;6.20;;;4.77;;
5491;SDS011;2768;53.540;10.224;2023-04-25T00:29:04;9.67;;;4.77;;
5491;SDS011;2768;53.540;10.224;2023-04-25T00:34:57;9.30;;;3.90;;
5491;SDS011;2768;53.540;10.224;2023-04-25T00:40:51;12.63;;;4.30;;
5491;SDS011;2768;53.540;10.224;2023-04-25T00:46:45;9.73;;;4.57;;
5491;SDS011;2768;53.540;10.224;2023-04-25T00:52:41;16.03;;;5.67;;
5491;SDS011;2768;53.540;10.224;2023-04-25T00:58:38;11.83;;;3.63;;
5491;SDS011;2768;53.540;10.224;2023-04-25T01:04:34;13.67;;;4.43;;
5491;SDS011;2768;53.540;10.224;2023-04-25T01:10:27;14.73;;;3.53;;
5491;SDS011;2768;53.540;10.224;2023-04-25T01:16:20;16.70;;;4.00;;
5491;SDS011;2768;53.540;10.224;2023-04-25T01:22:16;16.17;;;4.07;;
5491;SDS011;2768;53.540;10.224;2023-04-25T01:28:10;13.80;;;4.03;;
5491;SDS011;2768;53.540;10.224;2023-04-25T01:34:04;13.47;;;3.80;;
5491;SDS011;2768;53.540;10.224;2023-04-25T01:39:58;12.90;;;4.10;;
5491;SDS011;2768;53.540;10.224;2023-04-25T01:45:52;16.67;;;4.30;;
5491;SDS011;2768;53.540;10.224;2023-04-25T01:51:46;17.53;;;4.60;;
5491;SDS011;2768;53.540;10.224;2023-04-25T01:57:41;17.43;;;4.70;;
5491;SDS011;2768;53.540;10.224;2023-04-25T02:03:36;21.43;;;5.20;;
5491;SDS011;2768;53.540;10.224;2023-04-25T02:09:35;19.43;;;5.30;;
5491;SDS011;2768;53.540;10.224;2023-04-25T02:15:32;17.87;;;4.30;;
5491;SDS011;2768;53.540;10.224;2023-04-25T02:21:37;17.80;;;4.37;;
5491;SDS011;2768;53.540;10.224;2023-04-25T02:27:31;11.20;;;4.13;;
5491;SDS011;2768;53.540;10.224;2023-04-25T02:33:26;16.43;;;5.30;;
5491;SDS011;2768;53.540;10.224;2023-04-25T02:39:21;14.27;;;4.67;;
5491;SDS011;2768;53.540;10.224;2023-04-25T02:45:16;15.77;;;4.57;;
5491;SDS011;2768;53.540;10.224;2023-04-25T02:51:11;12.77;;;3.70;;
5491;SDS011;2768;53.540;10.224;2023-04-25T02:57:04;19.60;;;4.33;;
5491;SDS011;2768;53.540;10.224;2023-04-25T03:03:00;15.33;;;3.63;;
5491;SDS011;2768;53.540;10.224;2023-04-25T03:08:55;16.80;;;4.43;;
5491;SDS011;2768;53.540;10.224;2023-04-25T03:14:48;20.97;;;4.00;;
5491;SDS011;2768;53.540;10.224;2023-04-25T03:20:42;10.53;;;3.70;;
5491;SDS011;2768;53.540;10.224;2023-04-25T03:26:37;13.63;;;4.23;;
5491;SDS011;2768;53.540;10.224;2023-04-25T03:32:30;11.77;;;3.87;;
5491;SDS011;2768;53.540;10.224;2023-04-25T03:38:24;12.83;;;3.80;;
5491;SDS011;2768;53.540;10.224;2023-04-25T03:44:18;15.77;;;3.80;;
5491;SDS011;2768;53.540;10.224;2023-04-25T03:50:12;10.80;;;4.77;;
5491;SDS011;2768;53.540;10.224;2023-04-25T03:56:05;11.20;;;3.80;;
5491;SDS011;2768;53.540;10.224;2023-04-25T04:02:03;17.30;;;4.23;;
5491;SDS011;2768;53.540;10.224;2023-04-25T04:07:58;9.87;;;2.73;;
5491;SDS011;2768;53.540;10.224;2023-04-25T04:13:52;12.93;;;3.50;;
5491;SDS011;2768;53.540;10.224;2023-04-25T04:19:47;13.40;;;3.60;;
5491;SDS011;2768;53.540;10.224;2023-04-25T04:25:43;12.40;;;3.70;;
5491;SDS011;2768;53.540;10.224;2023-04-25T04:31:57;9.37;;;3.00;;
5491;SDS011;2768;53.540;10.224;2023-04-25T04:37:55;8.03;;;2.90;;
5491;SDS011;2768;53.540;10.224;2023-04-25T04:43:52;8.03;;;2.90;;
5491;SDS011;2768;53.540;10.224;2023-04-25T04:50:13;12.67;;;3.43;;
5491;SDS011;2768;53.540;10.224;2023-04-25T04:56:26;10.97;;;3.47;;
5491;SDS011;2768;53.540;10.224;2023-04-25T05:02:38;17.83;;;3.50;;
5491;SDS011;2768;53.540;10.224;2023-04-25T05:08:47;12.63;;;3.57;;
5491;SDS011;2768;53.540;10.224;2023-04-25T05:15:08;15.27;;;2.80;;
5491;SDS011;2768;53.540;10.224;2023-04-25T05:21:25;9.50;;;3.30;;
5491;SDS011;2768;53.540;10.224;2023-04-25T05:27:38;9.10;;;3.23;;
5491;SDS011;2768;53.540;10.224;2023-04-25T05:33:53;18.23;;;3.57;;
5491;SDS011;2768;53.540;10.224;2023-04-25T05:39:48;12.63;;;3.37;;
5491;SDS011;2768;53.540;10.224;2023-04-25T05:46:01;7.10;;;3.00;;
5491;SDS011;2768;53.540;10.224;2023-04-25T05:52:21;9.83;;;2.57;;
5491;SDS011;2768;53.540;10.224;2023-04-25T05:58:25;14.40;;;3.57;;
5491;SDS011;2768;53.540;10.224;2023-04-25T06:04:19;10.20;;;3.50;;
5491;SDS011;2768;53.540;10.224;2023-04-25T06:10:14;12.07;;;2.97;;
5491;SDS011;2768;53.540;10.224;2023-04-25T06:16:08;14.17;;;2.97;;
5491;SDS011;2768;53.540;10.224;2023-04-25T06:22:01;14.23;;;3.60;;
5491;SDS011;2768;53.540;10.224;2023-04-25T06:27:57;11.47;;;3.60;;
5491;SDS011;2768;53.540;10.224;2023-04-25T06:33:51;10.30;;;2.80;;
5491;SDS011;2768;53.540;10.224;2023-04-25T06:39:48;11.43;;;4.00;;
5491;SDS011;2768;53.540;10.224;2023-04-25T06:45:43;6.70;;;2.60;;
5491;SDS011;2768;53.540;10.224;2023-04-25T06:51:40;12.33;;;3.10;;
5491;SDS011;2768;53.540;10.224;2023-04-25T06:57:33;10.07;;;2.50;;
5491;SDS011;2768;53.540;10.224;2023-04-25T07:03:48;8.20;;;2.80;;
5491;SDS011;2768;53.540;10.224;2023-04-25T07:09:43;11.97;;;2.87;;
5491;SDS011;2768;53.540;10.224;2023-04-25T07:15:36;9.53;;;2.70;;
5491;SDS011;2768;53.540;10.224;2023-04-25T07:21:32;9.23;;;2.33;;
5491;SDS011;2768;53.540;10.224;2023-04-25T07:27:27;9.13;;;2.97;;
5491;SDS011;2768;53.540;10.224;2023-04-25T07:33:26;7.83;;;2.70;;
5491;SDS011;2768;53.540;10.224;2023-04-25T07:39:21;8.67;;;2.83;;
5491;SDS011;2768;53.540;10.224;2023-04-25T07:45:15;5.40;;;2.10;;
5491;SDS011;2768;53.540;10.224;2023-04-25T07:51:08;7.40;;;2.40;;
5491;SDS011;2768;53.540;10.224;2023-04-25T07:57:04;9.30;;;2.87;;
5491;SDS011;2768;53.540;10.224;2023-04-25T08:02:58;8.33;;;2.40;;
5491;SDS011;2768;53.540;10.224;2023-04-25T08:08:52;6.27;;;2.20;;
5491;SDS011;2768;53.540;10.224;2023-04-25T08:14:52;8.67;;;2.03;;
5491;SDS011;2768;53.540;10.224;2023-04-25T08:20:48;8.80;;;2.47;;
5491;SDS011;2768;53.540;10.224;2023-04-25T08:26:42;7.43;;;2.37;;
5491;SDS011;2768;53.540;10.224;2023-04-25T08:32:41;12.10;;;2.30;;
5491;SDS011;2768;53.540;10.224;2023-04-25T08:39:12;9.13;;;2.43;;
5491;SDS011;2768;53.540;10.224;2023-04-25T08:45:20;3.07;;;1.80;;
5491;SDS011;2768;53.540;10.224;2023-04-25T08:51:19;3.80;;;1.37;;
5491;SDS011;2768;53.540;10.224;2023-04-25T08:57:16;4.73;;;1.73;;
5491;SDS011;2768;53.540;10.224;2023-04-25T09:03:11;8.33;;;2.00;;
5491;SDS011;2768;53.540;10.224;2023-04-25T09:09:07;8.63;;;1.80;;
5491;SDS011;2768;53.540;10.224;2023-04-25T09:15:03;5.93;;;2.07;;
5491;SDS011;2768;53.540;10.224;2023-04-25T09:21:29;4.37;;;1.30;;
5491;SDS011;2768;53.540;10.224;2023-04-25T09:27:24;7.73;;;1.80;;
5491;SDS011;2768;53.540;10.224;2023-04-25T09:33:40;4.07;;;1.40;;
5491;SDS011;2768;53.540;10.224;2023-04-25T09:39:34;6.90;;;2.10;;
5491;SDS011;2768;53.540;10.224;2023-04-25T09:45:41;6.20;;;2.90;;
5491;SDS011;2768;53.540;10.224;2023-04-25T09:51:39;6.77;;;1.67;;
5491;SDS011;2768;53.540;10.224;2023-04-25T09:57:34;6.03;;;1.90;;
5491;SDS011;2768;53.540;10.224;2023-04-25T10:03:34;5.97;;;1.40;;
5491;SDS011;2768;53.540;10.224;2023-04-25T10:09:41;1.93;;;1.20;;
5491;SDS011;2768;53.540;10.224;2023-04-25T10:15:37;4.70;;;1.43;;
5491;SDS011;2768;53.540;10.224;2023-04-25T10:21:32;5.30;;;1.90;;
5491;SDS011;2768;53.540;10.224;2023-04-25T10:27:27;4.10;;;1.27;;
5491;SDS011;2768;53.540;10.224;2023-04-25T10:33:21;7.20;;;2.00;;
5491;SDS011;2768;53.540;10.224;2023-04-25T10:39:26;6.47;;;1.83;;
5491;SDS011;2768;53.540;10.224;2023-04-25T10:45:20;3.43;;;1.37;;
5491;SDS011;2768;53.540;10.224;2023-04-25T10:51:16;3.97;;;1.80;;
5491;SDS011;2768;53.540;10.224;2023-04-25T10:57:42;6.40;;;1.67;;
5491;SDS011;2768;53.540;10.224;2023-04-25T11:03:40;5.20;;;1.60;;
5491;SDS011;2768;53.540;10.224;2023-04-25T11:09:35;2.03;;;1.20;;
5491;SDS011;2768;53.540;10.224;2023-04-25T11:15:33;2.50;;;1.40;;
5491;SDS011;2768;53.540;10.224;2023-04-25T11:21:26;4.70;;;2.67;;
5491;SDS011;2768;53.540;10.224;2023-04-25T11:27:20;4.90;;;1.77;;
5491;SDS011;2768;53.540;10.224;2023-04-25T11:33:17;4.23;;;1.70;;
5491;SDS011;2768;53.540;10.224;2023-04-25T11:39:15;5.77;;;2.00;;
5491;SDS011;2768;53.540;10.224;2023-04-25T11:45:08;6.27;;;1.50;;
5491;SDS011;2768;53.540;10.224;2023-04-25T11:51:03;5.40;;;1.70;;
5491;SDS011;2768;53.540;10.224;2023-04-25T11:56:56;6.37;;;1.60;;
5491;SDS011;2768;53.540;10.224;2023-04-25T12:02:51;5.40;;;1.93;;
5491;SDS011;2768;53.540;10.224;2023-04-25T12:08:59;3.10;;;1.20;;
5491;SDS011;2768;53.540;10.224;2023-04-25T12:14:55;4.93;;;1.70;;
5491;SDS011;2768;53.540;10.224;2023-04-25T12:20:48;4.70;;;1.23;;
5491;SDS011;2768;53.540;10.224;2023-04-25T12:26:50;5.20;;;1.40;;
5491;SDS011;2768;53.540;10.224;2023-04-25T12:32:45;6.77;;;1.70;;
5491;SDS011;2768;53.540;10.224;2023-04-25T12:38:41;3.27;;;1.20;;
5491;SDS011;2768;53.540;10.224;2023-04-25T12:44:36;7.80;;;1.80;;
5491;SDS011;2768;53.540;10.224;2023-04-25T12:50:29;2.10;;;1.10;;
5491;SDS011;2768;53.540;10.224;2023-04-25T12:56:22;2.43;;;1.10;;
5491;SDS011;2768;53.540;10.224;2023-04-25T13:02:17;2.50;;;1.20;;
5491;SDS011;2768;53.540;10.224;2023-04-25T13:08:11;3.47;;;1.37;;
5491;SDS011;2768;53.540;10.224;2023-04-25T13:14:04;4.80;;;1.80;;
5491;SDS011;2768;53.540;10.224;2023-04-25T13:19:59;5.23;;;2.13;;
5491;SDS011;2768;53.540;10.224;2023-04-25T13:25:52;3.80;;;1.40;;
5491;SDS011;2768;53.540;10.224;2023-04-25T13:31:46;4.13;;;2.17;;
5491;SDS011;2768;53.540;10.224;2023-04-25T13:37:42;3.30;;;1.20;;
5491;SDS011;2768;53.540;10.224;2023-04-25T13:43:35;4.00;;;1.40;;
5491;SDS011;2768;53.540;10.224;2023-04-25T13:49:29;4.60;;;1.63;;
5491;SDS011;2768;53.540;10.224;2023-04-25T13:55:23;5.83;;;1.70;;
5491;SDS011;2768;53.540;10.224;2023-04-25T14:01:17;4.80;;;1.57;;
5491;SDS011;2768;53.540;10.224;2023-04-25T14:07:11;6.00;;;1.90;;
5491;SDS011;2768;53.540;10.224;2023-04-25T14:13:08;4.30;;;1.90;;
5491;SDS011;2768;53.540;10.224;2023-04-25T14:19:02;4.00;;;1.93;;
5491;SDS011;2768;53.540;10.224;2023-04-25T14:24:55;3.77;;;1.50;;
5491;SDS011;2768;53.540;10.224;2023-04-25T14:30:50;7.40;;;1.73;;
5491;SDS011;2768;53.540;10.224;2023-04-25T14:36:44;3.77;;;1.73;;
5491;SDS011;2768;53.540;10.224;2023-04-25T14:42:37;4.77;;;1.50;;
5491;SDS011;2768;53.540;10.224;2023-04-25T14:48:33;2.40;;;1.43;;
5491;SDS011;2768;53.540;10.224;2023-04-25T14:54:27;3.70;;;1.43;;
5491;SDS011;2768;53.540;10.224;2023-04-25T15:00:20;3.27;;;1.20;;
5491;SDS011;2768;53.540;10.224;2023-04-25T15:06:15;5.57;;;1.70;;
5491;SDS011;2768;53.540;10.224;2023-04-25T15:12:09;2.70;;;1.10;;
5491;SDS011;2768;53.540;10.224;2023-04-25T15:18:03;4.33;;;1.40;;
5491;SDS011;2768;53.540;10.224;2023-04-25T15:23:58;7.30;;;1.33;;
5491;SDS011;2768;53.540;10.224;2023-04-25T15:29:52;4.93;;;1.73;;
5491;SDS011;2768;53.540;10.224;2023-04-25T15:35:45;3.20;;;1.70;;
5491;SDS011;2768;53.540;10.224;2023-04-25T15:41:40;6.53;;;1.77;;
5491;SDS011;2768;53.540;10.224;2023-04-25T15:47:34;7.73;;;1.93;;
5491;SDS011;2768;53.540;10.224;2023-04-25T15:53:28;6.60;;;2.50;;
5491;SDS011;2768;53.540;10.224;2023-04-25T15:59:23;5.33;;;1.80;;
5491;SDS011;2768;53.540;10.224;2023-04-25T16:05:18;3.40;;;1.23;;
5491;SDS011;2768;53.540;10.224;2023-04-25T16:11:12;5.60;;;1.57;;
5491;SDS011;2768;53.540;10.224;2023-04-25T16:17:07;4.63;;;1.47;;
5491;SDS011;2768;53.540;10.224;2023-04-25T16:23:00;5.70;;;1.60;;
5491;SDS011;2768;53.540;10.224;2023-04-25T16:28:53;7.20;;;1.40;;
5491;SDS011;2768;53.540;10.224;2023-04-25T16:34:48;6.73;;;1.53;;
5491;SDS011;2768;53.540;10.224;2023-04-25T16:40:42;6.37;;;1.57;;
5491;SDS011;2768;53.540;10.224;2023-04-25T16:46:35;7.50;;;1.30;;
5491;SDS011;2768;53.540;10.224;2023-04-25T16:52:29;3.90;;;1.53;;
5491;SDS011;2768;53.540;10.224;2023-04-25T16:58:22;3.50;;;1.60;;
5491;SDS011;2768;53.540;10.224;2023-04-25T17:04:17;5.80;;;1.60;;
5491;SDS011;2768;53.540;10.224;2023-04-25T17:10:12;7.93;;;1.93;;
5491;SDS011;2768;53.540;10.224;2023-04-25T17:16:05;6.47;;;1.80;;
5491;SDS011;2768;53.540;10.224;2023-04-25T17:22:01;2.87;;;1.40;;
5491;SDS011;2768;53.540;10.224;2023-04-25T17:27:55;4.20;;;1.43;;
5491;SDS011;2768;53.540;10.224;2023-04-25T17:33:48;3.40;;;1.40;;
5491;SDS011;2768;53.540;10.224;2023-04-25T17:39:42;2.37;;;1.00;;
5491;SDS011;2768;53.540;10.224;2023-04-25T17:45:37;5.13;;;1.30;;
5491;SDS011;2768;53.540;10.224;2023-04-25T17:51:30;7.70;;;1.50;;
5491;SDS011;2768;53.540;10.224;2023-04-25T17:57:24;4.97;;;1.60;;
5491;SDS011;2768;53.540;10.224;2023-04-25T18:03:18;2.47;;;1.20;;
5491;SDS011;2768;53.540;10.224;2023-04-25T18:09:12;3.23;;;1.73;;
5491;SDS011;2768;53.540;10.224;2023-04-25T18:15:09;5.57;;;2.00;;
5491;SDS011;2768;53.540;10.224;2023-04-25T18:21:04;4.47;;;2.03;;
5491;SDS011;2768;53.540;10.224;2023-04-25T18:26:58;5.70;;;1.37;;
5491;SDS011;2768;53.540;10.224;2023-04-25T18:32:56;4.27;;;2.00;;
5491;SDS011;2768;53.540;10.224;2023-04-25T18:38:50;6.63;;;1.13;;
5491;SDS011;2768;53.540;10.224;2023-04-25T18:44:47;5.63;;;1.70;;
5491;SDS011;2768;53.540;10.224;2023-04-25T18:50:41;9.90;;;1.87;;
5491;SDS011;2768;53.540;10.224;2023-04-25T18:56:36;5.67;;;1.90;;
5491;SDS011;2768;53.540;10.224;2023-04-25T19:02:29;6.33;;;1.97;;
5491;SDS011;2768;53.540;10.224;2023-04-25T19:08:23;3.67;;;1.80;;
5491;SDS011;2768;53.540;10.224;2023-04-25T19:14:18;4.27;;;1.70;;
5491;SDS011;2768;53.540;10.224;2023-04-25T19:20:12;3.00;;;1.57;;
5491;SDS011;2768;53.540;10.224;2023-04-25T19:26:05;11.40;;;3.37;;
5491;SDS011;2768;53.540;10.224;2023-04-25T19:32:00;5.93;;;2.27;;
5491;SDS011;2768;53.540;10.224;2023-04-25T19:37:53;4.30;;;2.00;;
5491;SDS011;2768;53.540;10.224;2023-04-25T19:43:46;7.00;;;1.83;;
5491;SDS011;2768;53.540;10.224;2023-04-25T19:49:41;3.83;;;2.07;;
5491;SDS011;2768;53.540;10.224;2023-04-25T19:55:35;6.43;;;1.70;;
5491;SDS011;2768;53.540;10.224;2023-04-25T20:01:28;5.47;;;1.90;;
5491;SDS011;2768;53.540;10.224;2023-04-25T20:07:23;8.70;;;1.83;;
5491;SDS011;2768;53.540;10.224;2023-04-25T20:13:17;5.90;;;2.10;;
5491;SDS011;2768;53.540;10.224;2023-04-25T20:19:11;6.13;;;1.70;;
5491;SDS011;2768;53.540;10.224;2023-04-25T20:25:07;5.67;;;1.57;;
5491;SDS011;2768;53.540;10.224;2023-04-25T20:31:01;6.77;;;2.00;;
5491;SDS011;2768;53.540;10.224;2023-04-25T20:36:55;8.70;;;2.40;;
5491;SDS011;2768;53.540;10.224;2023-04-25T20:42:50;10.77;;;3.10;;
5491;SDS011;2768;53.540;10.224;2023-04-25T20:48:43;4.80;;;1.73;;
5491;SDS011;2768;53.540;10.224;2023-04-25T20:54:37;4.20;;;2.13;;
5491;SDS011;2768;53.540;10.224;2023-04-25T21:00:32;7.73;;;2.20;;
5491;SDS011;2768;53.540;10.224;2023-04-25T21:06:26;8.43;;;2.30;;
5491;SDS011;2768;53.540;10.224;2023-04-25T21:12:20;7.57;;;2.33;;
5491;SDS011;2768;53.540;10.224;2023-04-25T21:18:15;6.57;;;2.53;;
5491;SDS011;2768;53.540;10.224;2023-04-25T21:24:09;4.97;;;1.80;;
5491;SDS011;2768;53.540;10.224;2023-04-25T21:30:03;5.67;;;1.87;;
5491;SDS011;2768;53.540;10.224;2023-04-25T21:35:59;5.93;;;2.10;;
5491;SDS011;2768;53.540;10.224;2023-04-25T21:41:52;8.40;;;2.30;;
5491;SDS011;2768;53.540;10.224;2023-04-25T21:47:46;4.30;;;2.07;;
5491;SDS011;2768;53.540;10.224;2023-04-25T21:53:42;5.37;;;1.30;;
5491;SDS011;2768;53.540;10.224;2023-04-25T21:59:36;4.70;;;1.80;;
5491;SDS011;2768;53.540;10.224;2023-04-25T22:05:29;6.07;;;1.87;;
5491;SDS011;2768;53.540;10.224;2023-04-25T22:11:26;3.83;;;1.73;;
5491;SDS011;2768;53.540;10.224;2023-04-25T22:17:19;14.40;;;1.90;;
5491;SDS011;2768;53.540;10.224;2023-04-25T22:23:16;5.33;;;1.73;;
5491;SDS011;2768;53.540;10.224;2023-04-25T22:29:11;3.33;;;1.07;;
5491;SDS011;2768;53.540;10.224;2023-04-25T22:35:05;1.67;;;1.10;;
5491;SDS011;2768;53.540;10.224;2023-04-25T22:40:59;2.50;;;1.10;;
5491;SDS011;2768;53.540;10.224;2023-04-25T22:46:54;4.73;;;1.13;;
5491;SDS011;2768;53.540;10.224;2023-04-25T22:52:47;2.97;;;1.30;;
5491;SDS011;2768;53.540;10.224;2023-04-25T22:58:41;3.13;;;1.37;;
5491;SDS011;2768;53.540;10.224;2023-04-25T23:04:36;5.97;;;1.90;;
5491;SDS011;2768;53.540;10.224;2023-04-25T23:10:30;4.57;;;1.57;;
5491;SDS011;2768;53.540;10.224;2023-04-25T23:16:23;3.73;;;1.60;;
5491;SDS011;2768;53.540;10.224;2023-04-25T23:22:18;2.33;;;1.77;;
5491;SDS011;2768;53.540;10.224;2023-04-25T23:28:12;4.23;;;2.30;;
5491;SDS011;2768;53.540;10.224;2023-04-25T23:34:05;4.30;;;1.60;;
5491;SDS011;2768;53.540;10.224;2023-04-25T23:40:00;5.37;;;2.13;;
5491;SDS011;2768;53.540;10.224;2023-04-25T23:45:59;5.00;;;1.90;;
5491;SDS011;2768;53.540;10.224;2023-04-25T23:51:52;7.00;;;1.97;;
5491;SDS011;2768;53.540;10.224;2023-04-25T23:57:47;5.27;;;1.93;;
